createdAt,value
2018-03-23T00:00:40.709Z,45.20
2018-03-23T00:03:09.163Z,44.80
2018-03-23T00:05:37.541Z,47.63
2018-03-23T00:08:06.692Z,46.45
2018-03-23T00:10:35.103Z,43.17
2018-03-23T00:13:03.501Z,42.60
2018-03-23T00:15:33.704Z,42.73
2018-03-23T00:18:02.288Z,35.90
2018-03-23T00:20:30.803Z,36.33
2018-03-23T00:22:59.176Z,35.80
2018-03-23T00:25:28.341Z,35.47
2018-03-23T00:27:56.616Z,36.60
2018-03-23T00:30:25.132Z,35.73
2018-03-23T00:32:53.463Z,33.60
2018-03-23T00:35:22.034Z,32.73
2018-03-23T00:37:50.446Z,32.10
2018-03-23T00:40:18.783Z,27.53
2018-03-23T00:42:47.098Z,34.23
2018-03-23T00:45:16.427Z,32.03
2018-03-23T00:47:44.702Z,32.57
2018-03-23T00:50:12.986Z,33.13
2018-03-23T00:52:41.298Z,28.30
2018-03-23T00:55:09.564Z,28.20
2018-03-23T00:57:37.902Z,28.70
2018-03-23T01:00:06.942Z,29.07
2018-03-23T01:02:35.407Z,29.33
2018-03-23T01:05:03.708Z,30.17
2018-03-23T01:07:32.039Z,29.63
2018-03-23T01:10:00.428Z,29.50
2018-03-23T01:12:28.872Z,29.50
2018-03-23T01:14:57.259Z,27.00
2018-03-23T01:17:26.328Z,30.37
2018-03-23T01:19:54.773Z,29.80
2018-03-23T01:22:23.191Z,28.97
2018-03-23T01:24:51.708Z,28.50
2018-03-23T01:27:20.267Z,31.87
2018-03-23T01:29:49.553Z,22.62
2018-03-23T01:32:17.862Z,29.58
2018-03-23T01:34:46.313Z,28.23
2018-03-23T01:37:15.534Z,23.33
2018-03-23T01:39:44.598Z,24.73
2018-03-23T01:42:12.964Z,27.33
2018-03-23T01:44:41.276Z,28.07
2018-03-23T01:47:10.347Z,25.83
2018-03-23T01:49:38.658Z,26.33
2018-03-23T01:52:07.832Z,27.03
2018-03-23T01:54:36.181Z,24.80
2018-03-23T01:57:04.721Z,24.83
2018-03-23T01:59:33.133Z,24.02
2018-03-23T02:02:02.593Z,24.10
2018-03-23T02:04:31.838Z,22.63
2018-03-23T02:07:00.223Z,21.83
2018-03-23T02:09:28.532Z,23.17
2018-03-23T02:11:56.822Z,22.07
2018-03-23T02:14:26.778Z,22.15
2018-03-23T02:16:55.105Z,16.87
2018-03-23T02:19:24.259Z,21.83
2018-03-23T02:21:52.589Z,16.70
2018-03-23T02:24:21.665Z,22.97
2018-03-23T02:26:50.064Z,23.38
2018-03-23T02:29:19.224Z,20.87
2018-03-23T02:31:48.388Z,23.93
2018-03-23T02:34:16.654Z,25.12
2018-03-23T02:36:44.933Z,20.88
2018-03-23T02:39:13.263Z,23.00
2018-03-23T02:41:41.556Z,21.50
2018-03-23T02:44:10.765Z,20.07
2018-03-23T02:46:40.219Z,22.10
2018-03-23T02:49:08.567Z,21.67
2018-03-23T02:51:36.874Z,19.47
2018-03-23T02:54:05.244Z,23.13
2018-03-23T02:56:33.553Z,20.37
2018-03-23T02:59:02.901Z,23.27
2018-03-23T03:01:31.377Z,22.73
2018-03-23T03:03:59.657Z,22.17
2018-03-23T03:06:28.222Z,22.30
2018-03-23T03:08:56.550Z,25.48
2018-03-23T03:11:25.159Z,25.37
2018-03-23T03:13:54.334Z,24.27
2018-03-23T03:16:22.677Z,24.37
2018-03-23T03:18:50.967Z,25.87
2018-03-23T03:21:19.359Z,29.63
2018-03-23T03:23:47.769Z,30.77
2018-03-23T03:26:16.803Z,29.60
2018-03-23T03:28:45.214Z,29.70
2018-03-23T03:31:13.675Z,26.10
2018-03-23T03:33:42.278Z,24.90
2018-03-23T03:36:10.593Z,27.55
2018-03-23T03:38:39.717Z,29.87
2018-03-23T03:41:08.012Z,29.83
2018-03-23T03:43:36.482Z,28.00
2018-03-23T03:46:04.777Z,26.00
2018-03-23T03:48:33.075Z,30.30
2018-03-23T03:51:01.344Z,30.43
2018-03-23T03:53:29.654Z,30.83
2018-03-23T03:55:57.957Z,28.80
2018-03-23T03:58:26.514Z,31.27
2018-03-23T04:00:54.872Z,31.90
2018-03-23T04:03:23.402Z,81.13
2018-03-23T04:05:51.673Z,36.27
2018-03-23T04:08:19.964Z,28.67
2018-03-23T04:10:48.254Z,32.57
2018-03-23T04:13:16.558Z,34.17
2018-03-23T04:15:45.776Z,31.62
2018-03-23T04:18:14.839Z,36.03
2018-03-23T04:20:43.320Z,28.87
2018-03-23T04:23:11.779Z,32.93
2018-03-23T04:25:40.377Z,31.33
2018-03-23T04:28:08.713Z,29.67
2018-03-23T04:30:37.020Z,31.33
2018-03-23T04:33:05.343Z,35.97
2018-03-23T04:35:34.426Z,34.03
2018-03-23T04:38:03.534Z,32.70
2018-03-23T04:40:31.820Z,34.53
2018-03-23T04:43:00.164Z,35.10
2018-03-23T04:45:28.443Z,37.57
2018-03-23T04:47:56.841Z,37.90
2018-03-23T04:50:25.890Z,36.80
2018-03-23T04:52:54.185Z,31.07
2018-03-23T04:55:22.569Z,38.00
2018-03-23T04:57:50.880Z,36.53
2018-03-23T05:00:19.339Z,36.40
2018-03-23T05:02:48.479Z,39.22
2018-03-23T05:05:16.780Z,40.57
2018-03-23T05:07:45.335Z,42.90
2018-03-23T05:10:13.660Z,38.03
2018-03-23T05:12:42.803Z,47.03
2018-03-23T05:15:11.202Z,42.73
2018-03-23T05:17:39.584Z,39.50
2018-03-23T05:20:07.870Z,44.10
2018-03-23T05:22:36.170Z,45.87
2018-03-23T05:25:05.399Z,41.07
2018-03-23T05:27:34.554Z,49.00
2018-03-23T05:30:03.733Z,47.60
2018-03-23T05:32:32.083Z,50.47
2018-03-23T05:35:00.624Z,48.33
2018-03-23T05:37:29.840Z,53.70
2018-03-23T05:39:58.333Z,59.10
2018-03-23T05:42:26.680Z,57.03
2018-03-23T05:44:55.795Z,52.93
2018-03-23T05:47:24.299Z,56.43
2018-03-23T05:49:52.571Z,56.00
2018-03-23T05:52:22.164Z,63.27
2018-03-23T05:54:50.443Z,56.07
2018-03-23T05:57:19.060Z,52.67
2018-03-23T05:59:47.360Z,59.00
2018-03-23T06:02:15.760Z,81.65
2018-03-23T06:04:45.024Z,65.18
2018-03-23T06:07:13.376Z,63.80
2018-03-23T06:09:41.793Z,66.37
2018-03-23T06:12:10.401Z,72.22
2018-03-23T06:14:38.735Z,69.82
2018-03-23T06:17:07.022Z,69.53
2018-03-23T06:19:35.409Z,70.50
2018-03-23T06:22:04.574Z,68.25
2018-03-23T06:24:32.920Z,65.95
2018-03-23T06:27:01.348Z,69.20
2018-03-23T06:29:30.028Z,73.00
2018-03-23T06:31:58.375Z,65.60
2018-03-23T06:34:26.709Z,65.40
2018-03-23T06:36:55.089Z,67.12
2018-03-23T06:39:23.675Z,71.23
2018-03-23T06:41:53.014Z,70.05
2018-03-23T06:44:21.519Z,62.17
2018-03-23T06:46:49.996Z,67.93
2018-03-23T06:49:18.308Z,68.07
2018-03-23T06:51:46.673Z,69.57
2018-03-23T06:54:15.085Z,69.70
2018-03-23T06:56:44.274Z,65.83
2018-03-23T06:59:13.390Z,68.53
2018-03-23T07:01:41.829Z,68.70
2018-03-23T07:04:10.431Z,68.63
2018-03-23T07:06:39.593Z,63.25
2018-03-23T07:09:07.900Z,65.40
2018-03-23T07:11:37.148Z,62.43
2018-03-23T07:14:05.506Z,56.17
2018-03-23T07:16:33.789Z,58.53
2018-03-23T07:19:02.129Z,58.03
2018-03-23T07:21:31.315Z,60.93
2018-03-23T07:24:00.445Z,61.65
2018-03-23T07:26:28.766Z,58.63
2018-03-23T07:28:57.055Z,58.37
2018-03-23T07:31:25.685Z,56.10
2018-03-23T07:33:54.200Z,56.23
2018-03-23T07:36:22.631Z,55.43
2018-03-23T07:38:51.728Z,52.35
2018-03-23T07:41:20.875Z,54.78
2018-03-23T07:43:49.304Z,52.40
2018-03-23T07:46:18.390Z,52.33
2018-03-23T07:48:47.653Z,52.30
2018-03-23T07:51:16.081Z,47.67
2018-03-23T07:53:45.466Z,51.40
2018-03-23T07:56:13.766Z,47.38
2018-03-23T07:58:42.151Z,47.70
2018-03-23T08:01:10.635Z,47.53
2018-03-23T08:03:40.049Z,44.92
2018-03-23T08:06:08.687Z,43.93
2018-03-23T08:08:37.884Z,41.43
2018-03-23T08:11:06.325Z,43.20
2018-03-23T08:13:34.645Z,39.08
2018-03-23T08:16:04.204Z,38.30
2018-03-23T08:18:32.699Z,39.47
2018-03-23T08:21:01.050Z,39.60
2018-03-23T08:23:29.494Z,40.93
2018-03-23T08:25:58.801Z,41.30
2018-03-23T08:28:28.222Z,39.87
2018-03-23T08:30:57.880Z,42.13
2018-03-23T08:33:27.053Z,38.87
2018-03-23T08:35:55.427Z,40.67
2018-03-23T08:38:23.726Z,39.60
2018-03-23T08:40:52.099Z,35.70
2018-03-23T08:43:20.655Z,37.20
2018-03-23T08:45:49.217Z,37.67
2018-03-23T08:48:17.589Z,36.53
2018-03-23T08:50:45.976Z,35.80
2018-03-23T08:53:14.601Z,37.10
2018-03-23T08:55:42.979Z,36.07
2018-03-23T08:58:11.318Z,34.17
2018-03-23T09:00:40.575Z,30.90
2018-03-23T09:03:08.974Z,31.40
2018-03-23T09:05:38.036Z,28.13
2018-03-23T09:08:06.335Z,29.43
2018-03-23T09:10:35.549Z,29.93
2018-03-23T09:13:04.589Z,24.83
2018-03-23T09:15:32.869Z,26.57
2018-03-23T09:18:01.272Z,25.67
2018-03-23T09:20:29.661Z,27.93
2018-03-23T09:22:58.140Z,27.67
2018-03-23T09:25:27.364Z,28.13
2018-03-23T09:27:55.931Z,29.58
2018-03-23T09:30:24.342Z,29.50
2018-03-23T09:32:53.349Z,30.70
2018-03-23T09:35:21.732Z,28.80
2018-03-23T09:37:50.012Z,30.13
2018-03-23T09:40:18.291Z,29.43
2018-03-23T09:42:46.608Z,32.23
2018-03-23T09:45:15.746Z,29.50
2018-03-23T09:47:44.220Z,28.43
2018-03-23T09:50:12.785Z,29.67
2018-03-23T09:52:41.352Z,30.05
2018-03-23T09:55:10.632Z,27.30
2018-03-23T09:57:39.044Z,28.27
2018-03-23T10:00:07.336Z,26.00
2018-03-23T10:02:36.485Z,25.87
2018-03-23T10:05:04.794Z,26.83
2018-03-23T10:07:33.277Z,26.57
2018-03-23T10:10:01.599Z,26.33
2018-03-23T10:12:30.160Z,25.67
2018-03-23T10:14:58.497Z,23.48
2018-03-23T10:17:27.650Z,25.47
2018-03-23T10:19:55.950Z,24.87
2018-03-23T10:22:24.235Z,23.17
2018-03-23T10:24:53.472Z,21.50
2018-03-23T10:27:21.895Z,21.77
2018-03-23T10:29:50.381Z,21.47
2018-03-23T10:32:19.460Z,22.07
2018-03-23T10:34:48.592Z,19.83
2018-03-23T10:37:17.656Z,19.40
2018-03-23T10:39:45.946Z,18.03
2018-03-23T10:42:15.302Z,17.37
2018-03-23T10:44:43.898Z,15.10
2018-03-23T10:47:12.331Z,16.20
2018-03-23T10:49:40.800Z,18.10
2018-03-23T10:52:09.113Z,17.10
2018-03-23T10:54:37.530Z,17.77
2018-03-23T10:57:05.807Z,17.83
2018-03-23T10:59:34.350Z,16.95
2018-03-23T11:02:07.745Z,17.33
2018-03-23T11:04:36.164Z,17.97
2018-03-23T11:07:04.453Z,17.57
2018-03-23T11:09:32.848Z,17.73
2018-03-23T11:12:01.916Z,17.93
2018-03-23T11:14:30.261Z,18.70
2018-03-23T11:16:58.582Z,18.27
2018-03-23T11:19:27.113Z,16.90
2018-03-23T11:21:55.482Z,17.63
2018-03-23T11:24:23.945Z,20.23
2018-03-23T11:26:52.335Z,20.20
2018-03-23T11:29:20.608Z,17.07
2018-03-23T11:31:48.968Z,19.90
2018-03-23T11:34:18.010Z,18.37
2018-03-23T11:36:46.453Z,18.53
2018-03-23T11:39:16.298Z,16.62
2018-03-23T11:41:44.769Z,16.77
2018-03-23T11:44:13.074Z,19.37
2018-03-23T11:46:41.393Z,19.33
2018-03-23T11:49:10.585Z,21.00
2018-03-23T11:51:39.803Z,18.50
2018-03-23T11:54:08.252Z,20.00
2018-03-23T11:56:36.698Z,20.20
2018-03-23T11:59:05.291Z,22.20
2018-03-23T12:01:33.757Z,20.88
2018-03-23T12:04:02.127Z,21.93
2018-03-23T12:06:30.572Z,19.17
2018-03-23T12:09:00.861Z,21.23
2018-03-23T12:11:29.386Z,20.27
2018-03-23T12:13:57.730Z,20.93
2018-03-23T12:16:26.090Z,18.97
2018-03-23T12:18:54.530Z,20.10
2018-03-23T12:21:22.847Z,19.27
2018-03-23T12:23:51.288Z,20.07
2018-03-23T12:26:19.857Z,18.80
2018-03-23T12:28:48.176Z,21.23
2018-03-23T12:31:16.609Z,20.13
2018-03-23T12:33:45.686Z,20.83
2018-03-23T12:36:14.771Z,22.45
2018-03-23T12:38:43.170Z,21.45
2018-03-23T12:41:12.267Z,21.27
2018-03-23T12:43:41.415Z,21.17
2018-03-23T12:46:09.753Z,20.70
2018-03-23T12:48:38.097Z,22.60
2018-03-23T12:51:06.427Z,22.30
2018-03-23T12:53:34.828Z,23.83
2018-03-23T12:56:03.312Z,24.50
2018-03-23T12:58:31.777Z,23.38
2018-03-23T13:01:00.181Z,23.93
2018-03-23T13:03:28.698Z,24.40
2018-03-23T13:05:58.034Z,25.20
2018-03-23T13:08:26.526Z,25.93
2018-03-23T13:10:56.041Z,27.83
2018-03-23T13:13:24.501Z,27.03
2018-03-23T13:15:53.186Z,25.13
2018-03-23T13:18:21.538Z,23.90
2018-03-23T13:20:50.110Z,23.80
2018-03-23T13:23:19.344Z,26.20
2018-03-23T13:25:47.779Z,26.50
2018-03-23T13:28:16.882Z,25.87
2018-03-23T13:30:45.271Z,25.58
2018-03-23T13:33:13.655Z,26.60
2018-03-23T13:35:41.942Z,26.37
2018-03-23T13:38:10.627Z,24.17
2018-03-23T13:40:38.958Z,25.33
2018-03-23T13:43:07.305Z,23.03
2018-03-23T13:45:35.602Z,22.97
2018-03-23T13:48:04.709Z,23.90
2018-03-23T13:50:33.231Z,23.97
2018-03-23T13:53:01.533Z,22.92
2018-03-23T13:55:30.262Z,23.35
2018-03-23T13:57:59.653Z,22.67
2018-03-23T14:00:33.626Z,21.80
2018-03-23T14:03:02.088Z,23.52
2018-03-23T14:05:30.445Z,23.07
2018-03-23T14:07:58.901Z,21.60
2018-03-23T14:10:27.253Z,22.47
2018-03-23T14:12:55.737Z,23.20
2018-03-23T14:15:24.084Z,20.83
2018-03-23T14:17:52.622Z,22.43
2018-03-23T14:20:22.444Z,22.95
2018-03-23T14:22:52.292Z,22.35
2018-03-23T14:25:22.299Z,23.08
2018-03-23T14:27:52.396Z,22.23
2018-03-23T14:30:21.898Z,22.42
2018-03-23T14:32:52.210Z,23.13
2018-03-23T14:35:20.782Z,23.63
2018-03-23T14:37:49.313Z,23.00
2018-03-23T14:40:17.673Z,26.23
2018-03-23T14:42:46.171Z,26.33
2018-03-23T14:45:14.780Z,26.23
2018-03-23T14:47:43.115Z,24.50
2018-03-23T14:50:12.341Z,23.70
2018-03-23T14:52:40.805Z,24.97
2018-03-23T14:55:09.637Z,22.63
2018-03-23T14:57:38.068Z,21.80
2018-03-23T15:00:06.527Z,21.77
2018-03-23T15:02:35.838Z,21.00
2018-03-23T15:05:04.242Z,21.13
2018-03-23T15:10:07.998Z,19.25
2018-03-23T15:12:37.242Z,19.73
2018-03-23T15:15:05.610Z,21.10
2018-03-23T15:17:34.951Z,20.98
2018-03-23T15:20:03.473Z,21.33
2018-03-23T15:22:32.095Z,21.43
2018-03-23T15:25:00.495Z,22.23
2018-03-23T15:27:29.003Z,22.07
2018-03-23T15:29:57.407Z,20.60
2018-03-23T15:32:26.120Z,20.73
2018-03-23T15:34:54.468Z,22.33
2018-03-23T15:37:22.838Z,21.87
2018-03-23T15:39:51.979Z,22.07
2018-03-23T15:42:20.649Z,22.63
2018-03-23T15:44:50.173Z,22.87
2018-03-23T15:47:18.673Z,22.83
2018-03-23T15:49:47.129Z,23.50
2018-03-23T15:52:15.499Z,21.77
2018-03-23T15:54:44.119Z,22.17
2018-03-23T15:57:12.619Z,21.85
2018-03-23T15:59:41.050Z,19.23
2018-03-23T16:02:09.534Z,18.93
2018-03-23T16:04:38.214Z,18.35
2018-03-23T16:07:06.612Z,16.73
2018-03-23T16:09:35.538Z,18.57
2018-03-23T16:12:03.935Z,17.17
2018-03-23T16:14:33.129Z,16.40
2018-03-23T16:17:01.534Z,19.07
2018-03-23T16:19:30.013Z,16.62
2018-03-23T16:21:58.522Z,15.27
2018-03-23T16:24:28.012Z,13.33
2018-03-23T16:26:56.493Z,15.97
2018-03-23T16:29:24.958Z,16.60
2018-03-23T16:31:53.797Z,15.60
2018-03-23T16:34:22.439Z,15.30
2018-03-23T16:36:50.859Z,13.07
2018-03-23T16:39:19.512Z,15.20
2018-03-23T16:41:47.977Z,15.37
2018-03-23T16:44:17.458Z,15.83
2018-03-23T16:46:46.073Z,16.55
2018-03-23T16:49:15.228Z,13.07
2018-03-23T16:51:43.646Z,13.87
2018-03-23T16:54:12.205Z,12.90
2018-03-23T16:56:41.479Z,13.40
2018-03-23T16:59:09.985Z,15.93
2018-03-23T17:01:39.449Z,14.93
2018-03-23T17:04:08.437Z,13.50
2018-03-23T17:06:37.021Z,13.73
2018-03-23T17:09:05.911Z,13.33
2018-03-23T17:11:34.519Z,13.30
2018-03-23T17:14:03.019Z,11.87
2018-03-23T17:16:32.363Z,12.14
2018-03-23T17:19:01.168Z,12.67
2018-03-23T17:21:29.682Z,12.53
2018-03-23T17:23:58.491Z,12.30
2018-03-23T17:26:28.212Z,12.15
2018-03-23T17:28:56.943Z,10.53
2018-03-23T17:31:26.455Z,12.00
2018-03-23T17:33:55.384Z,9.70
2018-03-23T17:36:24.270Z,12.00
2018-03-23T17:38:54.118Z,10.40
2018-03-23T17:41:22.595Z,10.10
2018-03-23T17:43:51.324Z,10.90
2018-03-23T17:46:23.120Z,10.10
2018-03-23T17:48:52.678Z,10.47
2018-03-23T17:51:21.168Z,10.38
2018-03-23T17:53:50.137Z,10.70
2018-03-23T17:56:18.695Z,11.80
2018-03-23T17:58:48.352Z,11.82
2018-03-23T18:01:17.186Z,11.53
2018-03-23T18:03:46.653Z,12.03
2018-03-23T18:06:15.667Z,12.27
2018-03-23T18:08:44.194Z,12.33
2018-03-23T18:11:12.753Z,12.13
2018-03-23T18:13:42.191Z,12.97
2018-03-23T18:16:10.873Z,11.45
2018-03-23T18:18:39.482Z,12.63
2018-03-23T18:21:08.569Z,12.37
2018-03-23T18:23:38.052Z,11.25
2018-03-23T18:26:06.978Z,12.03
2018-03-23T18:28:36.639Z,10.43
2018-03-23T18:31:05.389Z,10.97
2018-03-23T18:33:34.283Z,12.88
2018-03-23T18:36:05.020Z,12.97
2018-03-23T18:38:35.711Z,12.80
2018-03-23T18:41:04.524Z,13.27
2018-03-23T18:43:32.996Z,10.82
2018-03-23T18:46:01.808Z,11.43
2018-03-23T18:48:31.151Z,12.10
2018-03-23T18:51:00.023Z,11.73
2018-03-23T18:53:28.562Z,11.90
2018-03-23T18:55:57.154Z,13.13
2018-03-23T18:58:26.089Z,11.77
2018-03-23T19:00:54.705Z,11.82
2018-03-23T19:03:23.196Z,12.13
2018-03-23T19:05:53.843Z,11.38
2018-03-23T19:08:22.584Z,12.15
2018-03-23T19:10:51.537Z,13.17
2018-03-23T19:13:20.341Z,11.17
2018-03-23T19:15:48.865Z,12.90
2018-03-23T19:18:17.654Z,12.73
2018-03-23T19:20:46.335Z,12.10
2018-03-23T19:23:15.209Z,14.20
2018-03-23T19:25:44.104Z,13.30
2018-03-23T19:28:12.742Z,12.93
2018-03-23T19:30:42.217Z,12.97
2018-03-23T19:33:11.091Z,13.97
2018-03-23T19:35:39.595Z,14.40
2018-03-23T19:38:08.449Z,14.55
2018-03-23T19:40:38.137Z,15.03
2018-03-23T19:43:07.084Z,12.83
2018-03-23T19:45:37.253Z,13.70
2018-03-23T19:48:06.539Z,14.23
2018-03-23T19:50:36.861Z,13.38
2018-03-23T19:53:07.584Z,13.70
2018-03-23T19:55:37.019Z,14.03
2018-03-23T19:58:06.423Z,13.13
2018-03-23T20:00:35.885Z,14.07
2018-03-23T20:03:04.847Z,15.10
2018-03-23T20:05:34.348Z,15.37
2018-03-23T20:08:03.474Z,14.70
2018-03-23T20:10:32.869Z,13.20
2018-03-23T20:13:02.120Z,16.03
2018-03-23T20:15:30.862Z,15.07
2018-03-23T20:21:04.886Z,14.67
2018-03-23T20:23:33.738Z,14.17
2018-03-23T20:26:02.128Z,14.53
2018-03-23T20:28:36.127Z,14.07
2018-03-23T20:31:04.539Z,21.67
2018-03-23T20:33:33.303Z,12.77
2018-03-23T20:36:01.925Z,14.10
2018-03-23T20:38:30.338Z,11.23
2018-03-23T20:40:58.702Z,14.03
2018-03-23T20:43:28.614Z,14.10
2018-03-23T20:45:57.077Z,12.47
2018-03-23T20:48:26.457Z,13.13
2018-03-23T20:50:55.728Z,12.90
2018-03-23T20:53:24.600Z,13.20
2018-03-23T20:55:53.574Z,13.87
2018-03-23T20:58:22.078Z,13.17
2018-03-23T21:00:50.935Z,12.55
2018-03-23T21:03:20.285Z,10.37
2018-03-23T21:05:48.741Z,10.65
2018-03-23T21:08:17.293Z,11.50
2018-03-23T21:10:46.615Z,11.38
2018-03-23T21:13:16.263Z,11.63
2018-03-23T21:15:45.241Z,13.20
2018-03-23T21:18:13.926Z,12.10
2018-03-23T21:20:43.189Z,11.63
2018-03-23T21:23:11.625Z,12.43
2018-03-23T21:25:40.203Z,13.00
2018-03-23T21:28:09.052Z,12.17
2018-03-23T21:30:37.881Z,10.90
2018-03-23T21:33:06.456Z,12.13
2018-03-23T21:35:35.229Z,12.53
2018-03-23T21:38:03.841Z,11.30
2018-03-23T21:40:32.608Z,12.10
2018-03-23T21:43:01.136Z,13.00
2018-03-23T21:45:30.661Z,13.80
2018-03-23T21:47:59.986Z,12.50
2018-03-23T21:50:28.333Z,12.97
2018-03-23T21:52:57.766Z,13.05
2018-03-23T21:55:26.162Z,13.20
2018-03-23T21:57:54.522Z,11.27
2018-03-23T22:00:24.681Z,13.00
2018-03-23T22:02:53.313Z,11.67
2018-03-23T22:05:21.825Z,11.73
2018-03-23T22:07:50.341Z,13.97
2018-03-23T22:10:19.482Z,15.27
2018-03-23T22:12:47.943Z,11.27
2018-03-23T22:15:17.037Z,13.07
2018-03-23T22:17:46.421Z,13.13
2018-03-23T22:20:14.931Z,14.83
2018-03-23T22:22:43.414Z,14.40
2018-03-23T22:25:11.949Z,13.87
2018-03-23T22:27:40.240Z,12.20
2018-03-23T22:30:08.918Z,12.90
2018-03-23T22:32:37.399Z,14.30
2018-03-23T22:35:05.740Z,11.47
2018-03-23T22:37:34.284Z,13.40
2018-03-23T22:40:03.499Z,10.33
2018-03-23T22:42:31.872Z,12.35
2018-03-23T22:45:00.459Z,12.77
2018-03-23T22:47:29.638Z,14.07
2018-03-23T22:49:58.259Z,12.30
2018-03-23T22:52:26.569Z,12.15
2018-03-23T22:54:55.149Z,12.37
2018-03-23T22:57:23.568Z,13.77
2018-03-23T22:59:53.665Z,9.75
2018-03-23T23:02:22.258Z,10.83
2018-03-23T23:04:50.649Z,14.10
2018-03-23T23:07:19.849Z,10.50
2018-03-23T23:09:48.156Z,13.13
2018-03-23T23:12:16.494Z,11.07
2018-03-23T23:14:44.995Z,12.37
2018-03-23T23:17:13.687Z,13.60
2018-03-23T23:19:42.149Z,13.43
2018-03-23T23:22:10.642Z,11.47
2018-03-23T23:24:39.178Z,10.70
2018-03-23T23:27:07.616Z,12.67
2018-03-23T23:29:35.939Z,11.33
2018-03-23T23:32:04.411Z,12.53
2018-03-23T23:34:32.750Z,10.90
2018-03-23T23:37:01.301Z,11.50
2018-03-23T23:39:29.751Z,11.00
2018-03-23T23:41:58.160Z,9.05
2018-03-23T23:44:27.566Z,11.23
2018-03-23T23:46:56.642Z,10.27
2018-03-23T23:49:24.995Z,11.03
2018-03-23T23:51:53.349Z,11.23
2018-03-23T23:54:21.689Z,9.97
2018-03-23T23:56:50.842Z,9.37
2018-03-23T23:59:19.287Z,7.67
